createdAt,value
2018-11-05T00:00:46.551Z,88.50
2018-11-05T00:03:14.764Z,89.75
2018-11-05T00:05:42.803Z,86.85
2018-11-05T00:08:10.825Z,89.95
2018-11-05T00:10:38.876Z,82.47
2018-11-05T00:13:07.835Z,88.57
2018-11-05T00:15:40.449Z,93.92
2018-11-05T00:18:08.567Z,89.75
2018-11-05T00:20:36.601Z,85.05
2018-11-05T00:23:04.625Z,91.30
2018-11-05T00:25:32.679Z,90.20
2018-11-05T00:28:00.735Z,94.13
2018-11-05T00:30:28.788Z,80.77
2018-11-05T00:32:56.811Z,86.80
2018-11-05T00:35:24.824Z,90.57
2018-11-05T00:37:52.876Z,87.30
2018-11-05T00:40:20.921Z,81.60
2018-11-05T00:42:48.956Z,84.90
2018-11-05T00:45:16.984Z,85.80
2018-11-05T00:47:45.098Z,90.50
2018-11-05T00:50:14.407Z,93.95
2018-11-05T00:52:42.441Z,81.00
2018-11-05T00:55:11.286Z,86.22
2018-11-05T00:57:39.315Z,86.05
2018-11-05T01:00:09.608Z,83.75
2018-11-05T01:02:37.932Z,84.77
2018-11-05T01:05:07.242Z,83.05
2018-11-05T01:07:35.276Z,83.10
2018-11-05T01:10:03.384Z,92.62
2018-11-05T01:12:31.459Z,85.45
2018-11-05T01:14:59.500Z,88.05
2018-11-05T01:17:27.563Z,87.02
2018-11-05T01:19:55.585Z,88.40
2018-11-05T01:22:23.640Z,81.37
2018-11-05T01:24:51.687Z,82.00
2018-11-05T01:27:19.715Z,87.30
2018-11-05T01:29:47.767Z,87.30
2018-11-05T01:32:15.775Z,82.75
2018-11-05T01:34:43.832Z,84.75
2018-11-05T01:37:11.899Z,87.30
2018-11-05T01:39:39.908Z,76.35
2018-11-05T01:42:07.952Z,80.85
2018-11-05T01:44:36.004Z,82.20
2018-11-05T01:47:04.060Z,78.95
2018-11-05T01:49:32.088Z,80.28
2018-11-05T01:52:00.135Z,85.10
2018-11-05T01:54:28.277Z,75.57
2018-11-05T01:56:56.304Z,84.80
2018-11-05T01:59:24.452Z,78.67
2018-11-05T02:01:52.495Z,84.30
2018-11-05T02:04:20.532Z,78.55
2018-11-05T02:06:48.635Z,82.72
2018-11-05T02:09:16.663Z,77.45
2018-11-05T02:11:44.708Z,82.75
2018-11-05T02:14:12.739Z,82.50
2018-11-05T02:16:40.805Z,82.95
2018-11-05T02:19:08.861Z,85.05
2018-11-05T02:21:36.883Z,78.52
2018-11-05T02:24:04.988Z,78.95
2018-11-05T02:26:33.033Z,83.73
2018-11-05T02:29:01.078Z,80.85
2018-11-05T02:31:29.129Z,84.83
2018-11-05T02:33:57.580Z,83.52
2018-11-05T02:36:25.624Z,84.73
2018-11-05T02:38:53.655Z,83.72
2018-11-05T02:41:21.696Z,91.02
2018-11-05T02:43:49.726Z,86.65
2018-11-05T02:46:17.799Z,81.25
2018-11-05T02:48:45.836Z,78.90
2018-11-05T02:51:13.887Z,80.40
2018-11-05T02:53:41.926Z,91.02
2018-11-05T02:56:09.959Z,80.65
2018-11-05T02:58:38.024Z,82.10
2018-11-05T03:01:06.509Z,87.50
2018-11-05T03:03:34.535Z,80.22
2018-11-05T03:06:02.573Z,86.85
2018-11-05T03:08:30.639Z,84.83
2018-11-05T03:10:58.694Z,89.17
2018-11-05T03:13:26.728Z,81.67
2018-11-05T03:15:54.752Z,88.52
2018-11-05T03:18:22.765Z,91.72
2018-11-05T03:20:50.835Z,81.70
2018-11-05T03:23:18.860Z,83.13
2018-11-05T03:25:46.896Z,84.17
2018-11-05T03:28:14.955Z,86.05
2018-11-05T03:30:42.992Z,86.12
2018-11-05T03:33:11.043Z,82.65
2018-11-05T03:35:39.128Z,81.43
2018-11-05T03:38:07.103Z,89.03
2018-11-05T03:40:35.148Z,83.70
2018-11-05T03:43:03.181Z,81.67
2018-11-05T03:45:31.211Z,77.90
2018-11-05T03:47:59.240Z,81.55
2018-11-05T03:50:27.289Z,80.77
2018-11-05T03:52:55.346Z,86.78
2018-11-05T03:55:23.431Z,80.70
2018-11-05T03:57:51.416Z,77.55
2018-11-05T04:00:19.536Z,76.42
2018-11-05T04:02:47.551Z,78.22
2018-11-05T04:05:15.610Z,79.70
2018-11-05T04:07:43.651Z,84.83
2018-11-05T04:10:12.744Z,78.65
2018-11-05T04:12:40.799Z,79.32
2018-11-05T04:15:08.891Z,74.07
2018-11-05T04:17:36.960Z,73.22
2018-11-05T04:20:06.909Z,74.93
2018-11-05T04:22:34.932Z,84.13
2018-11-05T04:25:02.985Z,77.95
2018-11-05T04:27:31.078Z,79.80
2018-11-05T04:29:59.117Z,78.95
2018-11-05T04:32:27.178Z,79.90
2018-11-05T04:34:55.212Z,79.75
2018-11-05T04:37:23.240Z,82.42
2018-11-05T04:39:51.283Z,77.60
2018-11-05T04:42:19.336Z,78.55
2018-11-05T04:44:47.376Z,80.80
2018-11-05T04:47:15.409Z,84.65
2018-11-05T04:49:43.436Z,77.00
2018-11-05T04:52:11.492Z,80.40
2018-11-05T04:54:39.537Z,73.35
2018-11-05T04:57:07.580Z,77.60
2018-11-05T04:59:35.600Z,81.25
2018-11-05T05:02:03.705Z,77.20
2018-11-05T05:04:31.724Z,81.57
2018-11-05T05:06:59.791Z,82.97
2018-11-05T05:09:27.815Z,85.87
2018-11-05T05:11:55.848Z,85.75
2018-11-05T05:14:23.900Z,85.07
2018-11-05T05:16:51.956Z,87.42
2018-11-05T05:19:20.005Z,87.08
2018-11-05T05:21:48.032Z,87.53
2018-11-05T05:24:16.064Z,93.15
2018-11-05T05:26:44.108Z,84.60
2018-11-05T05:29:12.167Z,81.20
2018-11-05T05:31:40.248Z,89.92
2018-11-05T05:34:08.288Z,89.25
2018-11-05T05:36:36.320Z,90.67
2018-11-05T05:39:06.698Z,89.25
2018-11-05T05:41:34.725Z,86.80
2018-11-05T05:44:02.767Z,86.30
2018-11-05T05:46:30.800Z,89.30
2018-11-05T05:48:58.868Z,85.20
2018-11-05T05:51:26.917Z,94.35
2018-11-05T05:53:54.948Z,81.63
2018-11-05T05:56:22.996Z,88.42
2018-11-05T05:58:51.025Z,84.72
2018-11-05T06:01:19.080Z,90.47
2018-11-05T06:03:47.140Z,84.05
2018-11-05T06:06:15.316Z,86.90
2018-11-05T06:08:43.233Z,91.15
2018-11-05T06:11:11.263Z,80.22
2018-11-05T06:13:39.316Z,87.50
2018-11-05T06:16:07.389Z,84.75
2018-11-05T06:18:35.460Z,91.03
2018-11-05T06:21:03.502Z,86.60
2018-11-05T06:23:31.532Z,94.30
2018-11-05T06:25:59.616Z,84.22
2018-11-05T06:28:27.686Z,83.50
2018-11-05T06:30:55.654Z,88.17
2018-11-05T06:33:23.745Z,88.75
2018-11-05T06:35:51.760Z,81.32
2018-11-05T06:38:20.241Z,81.20
2018-11-05T06:40:48.269Z,87.22
2018-11-05T06:43:16.308Z,84.03
2018-11-05T06:45:44.396Z,82.37
2018-11-05T06:48:12.490Z,89.95
2018-11-05T06:50:40.539Z,85.35
2018-11-05T06:53:08.568Z,82.70
2018-11-05T06:55:36.610Z,80.62
2018-11-05T06:58:04.793Z,79.95
2018-11-05T07:00:32.831Z,81.78
2018-11-05T07:03:00.880Z,83.10
2018-11-05T07:05:28.938Z,85.60
2018-11-05T07:07:56.992Z,81.00
2018-11-05T07:10:25.028Z,79.87
2018-11-05T07:12:53.065Z,81.63
2018-11-05T07:15:21.100Z,81.95
2018-11-05T07:17:49.815Z,84.83
2018-11-05T07:20:19.007Z,82.80
2018-11-05T07:22:47.996Z,78.02
2018-11-05T07:25:16.388Z,83.50
2018-11-05T07:27:44.513Z,82.12
2018-11-05T07:30:15.596Z,78.55
2018-11-05T07:32:43.696Z,82.20
2018-11-05T07:35:12.886Z,81.92
2018-11-05T07:37:41.232Z,81.80
2018-11-05T07:40:10.840Z,79.10
2018-11-05T07:42:39.328Z,71.65
2018-11-05T07:45:09.064Z,79.07
2018-11-05T07:47:37.113Z,73.10
2018-11-05T07:50:07.408Z,73.07
2018-11-05T07:52:35.416Z,77.15
2018-11-05T07:55:03.481Z,75.52
2018-11-05T07:57:31.504Z,72.82
2018-11-05T07:59:59.536Z,74.65
2018-11-05T08:02:27.591Z,74.15
2018-11-05T08:04:55.639Z,68.97
2018-11-05T08:07:23.668Z,74.72
2018-11-05T08:09:51.710Z,74.17
2018-11-05T08:12:19.756Z,74.65
2018-11-05T08:14:47.810Z,75.08
2018-11-05T08:17:15.831Z,73.83
2018-11-05T08:19:43.866Z,77.65
2018-11-05T08:22:11.919Z,69.82
2018-11-05T08:24:39.969Z,68.57
2018-11-05T08:27:08.007Z,70.85
2018-11-05T08:29:36.061Z,71.87
2018-11-05T08:32:04.148Z,69.40
2018-11-05T08:34:32.217Z,70.20
2018-11-05T08:37:00.273Z,75.12
2018-11-05T08:39:28.286Z,70.62
2018-11-05T08:41:56.349Z,69.97
2018-11-05T08:44:24.483Z,71.77
2018-11-05T08:46:52.636Z,70.83
2018-11-05T08:49:20.712Z,65.90
2018-11-05T08:51:49.099Z,70.25
2018-11-05T08:54:16.951Z,66.07
2018-11-05T08:56:44.924Z,70.40
2018-11-05T08:59:12.997Z,65.60
2018-11-05T09:01:41.062Z,70.50
2018-11-05T09:04:09.100Z,71.75
2018-11-05T09:06:37.176Z,64.22
2018-11-05T09:09:07.260Z,68.97
2018-11-05T09:11:35.898Z,64.92
2018-11-05T09:14:03.570Z,64.03
2018-11-05T09:16:31.649Z,74.85
2018-11-05T09:18:59.696Z,73.02
2018-11-05T09:21:27.735Z,64.30
2018-11-05T09:23:55.769Z,68.28
2018-11-05T09:26:23.820Z,64.55
2018-11-05T09:28:51.867Z,62.80
2018-11-05T09:31:19.926Z,61.40
2018-11-05T09:33:48.014Z,59.63
2018-11-05T09:36:16.056Z,62.60
2018-11-05T09:38:44.076Z,65.75
2018-11-05T09:41:12.208Z,65.50
2018-11-05T09:43:40.236Z,60.80
2018-11-05T09:46:08.275Z,58.52
2018-11-05T09:48:36.349Z,61.55
2018-11-05T09:51:04.444Z,57.20
2018-11-05T09:53:32.471Z,64.65
2018-11-05T09:56:00.526Z,62.75
2018-11-05T09:58:28.541Z,61.53
2018-11-05T10:00:56.577Z,62.88
2018-11-05T10:03:24.816Z,62.88
2018-11-05T10:05:52.682Z,58.30
2018-11-05T10:08:20.717Z,56.80
2018-11-05T10:10:48.776Z,57.67
2018-11-05T10:13:16.797Z,60.63
2018-11-05T10:15:44.861Z,56.63
2018-11-05T10:18:12.895Z,57.95
2018-11-05T10:20:40.992Z,63.30
2018-11-05T10:23:09.176Z,58.47
2018-11-05T10:25:37.233Z,57.13
2018-11-05T10:28:06.815Z,58.60
2018-11-05T10:30:34.876Z,52.48
2018-11-05T10:33:02.970Z,59.80
2018-11-05T10:35:36.533Z,60.95
2018-11-05T10:38:04.608Z,56.63
2018-11-05T10:40:32.841Z,57.40
2018-11-05T10:43:00.744Z,54.45
2018-11-05T10:45:28.783Z,55.52
2018-11-05T10:47:56.839Z,57.03
2018-11-05T10:50:24.938Z,58.50
2018-11-05T10:52:53.026Z,59.27
2018-11-05T10:55:21.073Z,54.60
2018-11-05T10:57:49.306Z,61.08
2018-11-05T11:00:24.916Z,61.50
2018-11-05T11:02:58.351Z,57.85
2018-11-05T11:05:27.246Z,56.53
2018-11-05T11:07:56.423Z,60.47
2018-11-05T11:10:25.316Z,63.65
2018-11-05T11:12:53.380Z,56.00
2018-11-05T11:15:21.513Z,64.12
2018-11-05T11:17:49.624Z,58.70
2018-11-05T11:20:17.698Z,58.35
2018-11-05T11:22:45.828Z,59.63
2018-11-05T11:25:13.867Z,54.30
2018-11-05T11:27:41.985Z,63.80
2018-11-05T11:30:11.448Z,60.80
2018-11-05T11:32:39.628Z,61.90
2018-11-05T11:35:08.187Z,66.10
2018-11-05T11:37:36.251Z,57.23
2018-11-05T11:40:07.652Z,60.38
2018-11-05T11:42:35.718Z,63.05
2018-11-05T11:45:03.957Z,63.73
2018-11-05T11:47:31.856Z,62.98
2018-11-05T11:49:59.885Z,64.77
2018-11-05T11:52:27.958Z,61.83
2018-11-05T11:54:56.000Z,68.05
2018-11-05T11:57:24.051Z,66.82
2018-11-05T11:59:52.088Z,65.50
2018-11-05T12:02:20.181Z,65.75
2018-11-05T12:04:48.185Z,63.35
2018-11-05T12:07:16.232Z,65.50
2018-11-05T12:09:44.247Z,65.50
2018-11-05T12:12:12.533Z,65.45
2018-11-05T12:14:40.629Z,71.13
2018-11-05T12:17:08.609Z,72.70
2018-11-05T12:19:36.671Z,68.90
2018-11-05T12:22:04.731Z,65.40
2018-11-05T12:24:32.826Z,68.33
2018-11-05T12:27:00.844Z,75.90
2018-11-05T12:29:28.936Z,71.20
2018-11-05T12:31:57.050Z,72.53
2018-11-05T12:34:25.108Z,72.10
2018-11-05T12:36:53.173Z,68.37
2018-11-05T12:39:21.222Z,74.00
2018-11-05T12:41:49.279Z,69.25
2018-11-05T12:44:17.330Z,74.30
2018-11-05T12:46:45.401Z,69.37
2018-11-05T12:49:13.447Z,75.75
2018-11-05T12:51:41.622Z,83.73
2018-11-05T12:54:09.671Z,76.82
2018-11-05T12:56:37.701Z,76.10
2018-11-05T12:59:06.241Z,73.67
2018-11-05T13:01:34.289Z,82.78
2018-11-05T13:04:02.343Z,83.85
2018-11-05T13:06:30.372Z,83.15
2018-11-05T13:08:58.411Z,80.62
2018-11-05T13:11:26.492Z,79.47
2018-11-05T13:13:54.563Z,77.25
2018-11-05T13:16:22.616Z,85.97
2018-11-05T13:18:50.756Z,84.95
2018-11-05T13:21:18.757Z,78.67
2018-11-05T13:23:47.903Z,84.28
2018-11-05T13:26:16.524Z,90.22
2018-11-05T13:28:44.579Z,88.10
2018-11-05T13:31:12.617Z,93.47
2018-11-05T13:33:40.911Z,93.50
2018-11-05T13:36:08.944Z,87.82
2018-11-05T13:38:37.152Z,94.52
2018-11-05T13:41:05.645Z,85.97
2018-11-05T13:43:33.700Z,89.42
2018-11-05T13:46:02.171Z,97.50
2018-11-05T13:48:30.249Z,101.42
2018-11-05T13:50:57.892Z,96.50
2018-11-05T13:53:25.945Z,90.30
2018-11-05T13:55:54.029Z,96.72
2018-11-05T13:58:22.118Z,93.22
2018-11-05T14:00:50.132Z,91.55
2018-11-05T14:03:18.185Z,85.97
2018-11-05T14:05:46.296Z,86.37
2018-11-05T14:08:14.283Z,94.92
2018-11-05T14:10:42.344Z,84.85
2018-11-05T14:13:10.378Z,87.20
2018-11-05T14:15:38.416Z,85.45
2018-11-05T14:18:06.471Z,83.87
2018-11-05T14:20:34.531Z,90.17
2018-11-05T14:23:04.484Z,83.70
2018-11-05T14:25:32.716Z,90.13
2018-11-05T14:28:00.876Z,83.80
2018-11-05T14:30:28.732Z,90.38
2018-11-05T14:32:56.756Z,93.93
2018-11-05T14:35:24.800Z,99.62
2018-11-05T14:37:52.875Z,93.58
2018-11-05T14:40:20.939Z,90.10
2018-11-05T14:42:49.012Z,95.15
2018-11-05T14:45:18.756Z,92.75
2018-11-05T14:47:47.326Z,82.45
2018-11-05T14:50:23.169Z,83.03
2018-11-05T14:52:51.280Z,84.30
2018-11-05T14:55:19.944Z,89.03
2018-11-05T14:57:49.340Z,89.07
2018-11-05T15:00:19.382Z,86.45
2018-11-05T15:02:48.110Z,78.10
2018-11-05T15:05:16.424Z,84.13
2018-11-05T15:07:45.767Z,88.33
2018-11-05T15:10:16.045Z,93.25
2018-11-05T15:12:44.329Z,101.47
2018-11-05T15:15:13.249Z,92.42
2018-11-05T15:17:41.912Z,96.55
2018-11-05T15:20:12.239Z,97.92
2018-11-05T15:22:41.125Z,93.62
2018-11-05T15:25:09.213Z,96.37
2018-11-05T15:27:38.390Z,95.45
2018-11-05T15:30:09.761Z,97.62
2018-11-05T15:32:38.013Z,92.80
2018-11-05T15:35:06.069Z,83.33
2018-11-05T15:37:34.468Z,86.17
2018-11-05T15:40:02.516Z,78.57
2018-11-05T15:42:30.597Z,81.25
2018-11-05T15:44:58.653Z,84.60
2018-11-05T15:47:26.693Z,83.05
2018-11-05T15:49:54.760Z,83.90
2018-11-05T15:52:23.340Z,94.85
2018-11-05T15:54:50.867Z,92.60
2018-11-05T15:57:18.929Z,91.50
2018-11-05T15:59:46.975Z,88.62
2018-11-05T16:02:15.055Z,89.25
2018-11-05T16:04:43.840Z,90.03
2018-11-05T16:07:11.895Z,91.92
2018-11-05T16:09:40.707Z,83.63
2018-11-05T16:12:08.811Z,84.87
2018-11-05T16:14:37.259Z,84.62
2018-11-05T16:17:05.305Z,75.62
2018-11-05T16:19:33.344Z,76.95
2018-11-05T16:22:01.384Z,73.10
2018-11-05T16:24:29.448Z,80.10
2018-11-05T16:26:58.113Z,85.40
2018-11-05T16:29:26.292Z,76.62
2018-11-05T16:31:54.391Z,80.42
2018-11-05T16:34:22.421Z,77.97
2018-11-05T16:36:50.475Z,82.72
2018-11-05T16:39:18.528Z,87.80
2018-11-05T16:41:46.676Z,88.17
2018-11-05T16:44:14.620Z,84.52
2018-11-05T16:46:42.708Z,83.87
2018-11-05T16:49:10.754Z,87.42
2018-11-05T16:51:38.820Z,84.20
2018-11-05T16:54:07.175Z,85.90
2018-11-05T16:56:35.795Z,80.03
2018-11-05T16:59:04.163Z,85.45
2018-11-05T17:01:32.470Z,85.20
2018-11-05T17:04:00.283Z,85.72
2018-11-05T17:06:28.353Z,84.17
2018-11-05T17:08:56.428Z,77.80
2018-11-05T17:11:24.517Z,73.62
2018-11-05T17:13:52.593Z,85.80
2018-11-05T17:16:20.599Z,82.15
2018-11-05T17:18:48.676Z,79.62
2018-11-05T17:21:16.776Z,77.17
2018-11-05T17:23:44.815Z,84.95
2018-11-05T17:26:12.937Z,87.82
2018-11-05T17:28:40.947Z,84.17
2018-11-05T17:31:09.296Z,82.88
2018-11-05T17:33:37.893Z,84.83
2018-11-05T17:36:05.927Z,83.47
2018-11-05T17:38:35.465Z,87.53
2018-11-05T17:41:03.516Z,78.35
2018-11-05T17:43:32.395Z,82.92
2018-11-05T17:46:00.951Z,84.07
2018-11-05T17:48:29.002Z,82.50
2018-11-05T17:50:57.146Z,89.47
2018-11-05T17:53:25.088Z,87.45
2018-11-05T17:55:53.123Z,84.72
2018-11-05T17:58:21.631Z,93.52
2018-11-05T18:00:50.181Z,88.52
2018-11-05T18:03:18.228Z,87.55
2018-11-05T18:05:46.377Z,89.80
2018-11-05T18:08:14.416Z,92.60
2018-11-05T18:10:42.537Z,86.42
2018-11-05T18:13:10.609Z,87.22
2018-11-05T18:15:38.846Z,85.50
2018-11-05T18:18:07.351Z,83.65
2018-11-05T18:20:35.412Z,89.62
2018-11-05T18:23:03.471Z,85.12
2018-11-05T18:25:31.559Z,84.80
2018-11-05T18:27:59.835Z,91.80
2018-11-05T18:30:27.895Z,89.00
2018-11-05T18:32:55.941Z,87.67
2018-11-05T18:35:24.008Z,92.02
2018-11-05T18:37:52.299Z,86.47
2018-11-05T18:40:20.360Z,84.00
2018-11-05T18:42:48.452Z,92.20
2018-11-05T18:45:16.575Z,89.20
2018-11-05T18:47:45.114Z,91.80
2018-11-05T18:50:14.475Z,90.53
2018-11-05T18:52:42.921Z,87.85
2018-11-05T18:55:12.516Z,95.93
2018-11-05T18:57:40.768Z,89.40
2018-11-05T19:00:18.160Z,87.80
2018-11-05T19:02:46.336Z,95.40
2018-11-05T19:05:14.296Z,95.15
2018-11-05T19:07:42.412Z,94.65
2018-11-05T19:10:10.665Z,96.65
2018-11-05T19:12:39.030Z,97.78
2018-11-05T19:15:08.629Z,99.52
2018-11-05T19:17:36.800Z,103.80
2018-11-05T19:20:05.192Z,96.15
2018-11-05T19:22:33.261Z,100.90
2018-11-05T19:25:01.857Z,97.90
2018-11-05T19:27:29.882Z,96.28
2018-11-05T19:29:57.925Z,94.97
2018-11-05T19:32:26.044Z,98.60
2018-11-05T19:34:54.138Z,102.30
2018-11-05T19:37:22.178Z,105.83
2018-11-05T19:39:50.269Z,97.78
2018-11-05T19:42:18.496Z,104.23
2018-11-05T19:44:46.365Z,103.00
2018-11-05T19:47:14.394Z,100.82
2018-11-05T19:49:42.506Z,105.30
2018-11-05T19:52:10.541Z,104.78
2018-11-05T19:54:38.577Z,97.45
2018-11-05T19:57:06.631Z,105.55
2018-11-05T19:59:34.720Z,97.95
2018-11-05T20:02:02.796Z,101.63
2018-11-05T20:04:30.860Z,112.28
2018-11-05T20:06:58.935Z,109.87
2018-11-05T20:09:26.975Z,102.92
2018-11-05T20:11:55.051Z,106.00
2018-11-05T20:14:23.108Z,103.15
2018-11-05T20:16:51.296Z,107.37
2018-11-05T20:19:19.380Z,104.78
2018-11-05T20:21:47.357Z,107.03
2018-11-05T20:24:15.393Z,101.18
2018-11-05T20:26:43.435Z,108.25
2018-11-05T20:29:11.487Z,110.10
2018-11-05T20:31:39.956Z,101.42
2018-11-05T20:34:08.322Z,107.00
2018-11-05T20:36:36.115Z,103.58
2018-11-05T20:39:06.045Z,103.97
2018-11-05T20:41:34.094Z,101.67
2018-11-05T20:44:02.141Z,110.75
2018-11-05T20:46:30.235Z,101.35
2018-11-05T20:48:58.217Z,102.12
2018-11-05T20:51:26.352Z,107.58
2018-11-05T20:53:54.495Z,104.07
2018-11-05T20:56:22.523Z,106.83
2018-11-05T20:58:50.577Z,101.47
2018-11-05T21:01:18.624Z,104.60
2018-11-05T21:03:46.668Z,98.42
2018-11-05T21:06:14.721Z,103.93
2018-11-05T21:08:42.767Z,95.20
2018-11-05T21:11:10.873Z,98.82
2018-11-05T21:13:38.952Z,100.67
2018-11-05T21:16:07.012Z,101.85
2018-11-05T21:18:35.085Z,104.90
2018-11-05T21:21:03.485Z,106.55
2018-11-05T21:23:31.508Z,105.50
2018-11-05T21:25:59.574Z,102.47
2018-11-05T21:28:27.613Z,106.95
2018-11-05T21:30:55.669Z,102.27
2018-11-05T21:33:23.733Z,104.50
2018-11-05T21:35:51.784Z,96.67
2018-11-05T21:38:19.819Z,108.63
2018-11-05T21:40:47.890Z,110.57
2018-11-05T21:43:15.932Z,105.40
2018-11-05T21:45:44.006Z,115.67
2018-11-05T21:48:12.044Z,112.37
2018-11-05T21:50:40.094Z,105.05
2018-11-05T21:53:08.139Z,108.22
2018-11-05T21:55:36.195Z,104.92
2018-11-05T21:58:04.253Z,106.70
2018-11-05T22:00:32.315Z,111.80
2018-11-05T22:03:01.952Z,106.27
2018-11-05T22:05:30.647Z,104.90
2018-11-05T22:07:58.726Z,111.65
2018-11-05T22:10:26.778Z,108.30
2018-11-05T22:12:54.815Z,108.67
2018-11-05T22:15:22.920Z,103.97
2018-11-05T22:17:50.965Z,108.07
2018-11-05T22:20:19.005Z,109.22
2018-11-05T22:22:47.052Z,110.45
2018-11-05T22:25:15.124Z,105.63
2018-11-05T22:27:43.201Z,115.62
2018-11-05T22:30:11.791Z,112.75
2018-11-05T22:32:39.840Z,107.32
2018-11-05T22:35:07.949Z,110.63
2018-11-05T22:37:36.089Z,106.90
2018-11-05T22:40:05.917Z,112.12
2018-11-05T22:42:33.963Z,110.20
2018-11-05T22:45:02.277Z,106.40
2018-11-05T22:47:30.326Z,103.02
2018-11-05T22:49:58.379Z,106.32
2018-11-05T22:52:26.431Z,103.27
2018-11-05T22:54:54.467Z,114.53
2018-11-05T22:57:22.503Z,106.85
2018-11-05T22:59:50.564Z,104.63
2018-11-05T23:02:18.583Z,107.75
2018-11-05T23:04:47.105Z,104.65
2018-11-05T23:07:15.204Z,108.87
2018-11-05T23:09:43.252Z,110.07
2018-11-05T23:12:11.428Z,110.08
2018-11-05T23:14:39.465Z,112.63
2018-11-05T23:17:07.501Z,110.83
2018-11-05T23:19:35.549Z,105.47
2018-11-05T23:22:03.572Z,107.87
2018-11-05T23:24:31.632Z,110.90
2018-11-05T23:26:59.668Z,107.35
2018-11-05T23:29:27.725Z,119.20
2018-11-05T23:31:55.781Z,102.70
2018-11-05T23:34:23.813Z,98.17
2018-11-05T23:36:51.929Z,102.62
2018-11-05T23:39:19.952Z,108.17
2018-11-05T23:41:48.004Z,100.47
2018-11-05T23:44:16.098Z,104.78
2018-11-05T23:46:44.132Z,96.57
2018-11-05T23:49:12.154Z,94.80
2018-11-05T23:51:40.229Z,104.83
2018-11-05T23:54:08.233Z,96.53
2018-11-05T23:56:36.275Z,90.50
2018-11-05T23:59:04.376Z,100.58
